Tiempo atmosférico en la estación meteorológica de Prat de Lluçanès, Barcelona (700 m.)



Fecha
DESCASC
Temp. máxima en grados centígrados (hora)
DESCASC
Temp. mínima en grados centígrados (hora)
DESCASC
Temp. media en grados centígrados
DESCASC
Racha de viento máxima en m/sg (hora)
DESCASC
Velocidad máxima media en intervalos de 10 minutos(hora)
DESCASC
Precipitaciones diarias en mm
DESCASC
Precipitaciones de 00:00 a 06:00 en mm
DESCASC
Precipitaciones de 06:00 a 12:00 en mm
DESCASC
Precipitaciones de 12:00 a 18:00 en mm
DESCASC
Precipitaciones de 18:00 a 24:00 en mm
DESCASC

Gráficas

Temp. máximas Temp. mínimas Temp. medias Precipitaciones Rachas de viento máximas Velocidades máximas media en intervalos de 10 minutos

Datos horarios

Fecha y hora oficial Temperatura (ºC) Velocidad del viento (km/h) Dirección del viento Racha (km/h) Dirección de racha Precipitación (mm) Presión (hPa) Tendencia (hPa) Humedad (%)
2019-11-13 23:00:00 6.4 3 Sudoeste 6 Sur 0 -- -- 94
2019-11-13 22:00:00 6.4 0 Calma 6 Sudoeste 0 -- -- 94
2019-11-13 21:00:00 5.9 2 Noroeste 5 Este 0 -- -- 96
2019-11-13 20:00:00 4.3 0 Calma 6 Sur 0 -- -- 95
2019-11-13 19:00:00 5.5 3 Sudeste 8 Sur 0 -- -- 89
2019-11-13 18:00:00 7.4 4 Sur 12 Sur 0 -- -- 84
2019-11-13 17:00:00 9.4 5 Sur 15 Sur 0 -- -- 78
2019-11-13 16:00:00 10.5 8 Sur 16 Sur 0 -- -- 73
2019-11-13 15:00:00 11 6 Sur 18 Sudoeste 0 -- -- 72
2019-11-13 14:00:00 9.9 9 Sudoeste 18 Sudoeste 0 -- -- 76
2019-11-13 13:00:00 9 5 Oeste 9 Oeste 0 -- -- 75
2019-11-13 12:00:00 8.2 0 Calma 4 Noroeste 0 -- -- 78
2019-11-13 11:00:00 7.6 2 Norte 9 Nordeste 0 -- -- 80
2019-11-13 10:00:00 6.3 6 Nordeste 10 Nordeste 0 -- -- 82
2019-11-13 09:00:00 5 3 Norte 12 Nordeste 0 -- -- 86
2019-11-13 08:00:00 3.6 4 Norte 9 Nordeste 0 -- -- 92
2019-11-13 07:00:00 3.4 6 Nordeste 12 Nordeste 0 -- -- 95
2019-11-13 06:00:00 2.8 4 Norte 12 Norte 0 -- -- 98
2019-11-13 05:00:00 2.9 3 Nordeste 8 Este 0 -- -- 98
2019-11-13 04:00:00 2 3 Este 8 Nordeste 0 -- -- 100
2019-11-13 03:00:00 0.9 0 Calma 6 Noroeste 0 -- -- 98
2019-11-13 02:00:00 1.3 2 Norte 7 Noroeste 0 -- -- 97
2019-11-13 01:00:00 1.3 4 Norte 5 Noroeste 0 -- -- 95
2019-11-13 00:00:00 2.7 0 Calma 5 Norte 0 -- -- 92
2019-11-12 23:00:00 3.6 0 Calma 7 Oeste 0 -- -- 91
2019-11-12 22:00:00 3.9 0 Calma 5 Norte 0 -- -- 92
2019-11-12 21:00:00 4.1 0 Calma 5 Norte 0 -- -- 88
2019-11-12 20:00:00 5.8 0 Calma 5 Noroeste 0 -- -- 83
2019-11-12 19:00:00 7.7 0 Calma 6 Este 0 -- -- 75
2019-11-12 18:00:00 9.8 0 Calma 9 Sudeste 0 -- -- 64
2019-11-12 17:00:00 12.1 3 Sur 23 Sudoeste 0 -- -- 53
2019-11-12 16:00:00 12.8 15 Oeste 31 Sudoeste 0 -- -- 49
2019-11-12 15:00:00 14 14 Sudoeste 27 Sudoeste 0 -- -- 41
2019-11-12 14:00:00 14.2 15 Sudoeste 30 Sur 0 -- -- 36
2019-11-12 13:00:00 13.3 8 Sur 20 Sur 0 -- -- 45
2019-11-12 12:00:00 11.8 13 Sudoeste 23 Sudoeste 0 -- -- 40
2019-11-12 11:00:00 10.1 11 Sudoeste 21 Oeste 0 -- -- 45
2019-11-12 10:00:00 9.4 11 Oeste 23 Noroeste 0 -- -- 46
2019-11-12 09:00:00 8.7 19 Noroeste 29 Noroeste 0 -- -- 41
2019-11-12 08:00:00 3.6 4 Sudoeste 12 Oeste 0 -- -- 77
2019-11-12 07:00:00 4.4 3 Este 21 Noroeste 0 -- -- 74
2019-11-12 06:00:00 4.5 8 Oeste 16 Noroeste 0 -- -- 68
2019-11-12 05:00:00 2.5 2 Sur 14 Sudoeste 0 -- -- 90
2019-11-12 04:00:00 2.2 4 Sudoeste 14 Sur 0 -- -- 93
2019-11-12 03:00:00 2.7 4 Este 12 Oeste 0 -- -- 87
2019-11-12 02:00:00 1.9 3 Norte 7 Noroeste 0 -- -- 91
2019-11-12 01:00:00 2.4 2 Norte 7 Noroeste 0 -- -- 89
2019-11-12 00:00:00 3 3 Nordeste 8 Sudoeste 0 -- -- 88
2019-11-11 23:00:00 2.9 5 Noroeste 8 Norte 0 -- -- 87
2019-11-11 22:00:00 3.5 0 Calma 8 Noroeste 0 -- -- 86
2019-11-11 21:00:00 3.2 0 Calma 6 Norte 0 -- -- 88
2019-11-11 20:00:00 4.4 4 Noroeste 6 Norte 0 -- -- 85
2019-11-11 19:00:00 5.5 2 Este 4 Norte 0 -- -- 78
2019-11-11 18:00:00 6.2 0 Calma 10 Oeste 0 -- -- 75
2019-11-11 17:00:00 8.3 3 Sur 9 Sudoeste 0 -- -- 69
2019-11-11 16:00:00 9.6 6 Sudoeste 18 Oeste 0 -- -- 60
2019-11-11 15:00:00 10.4 10 Oeste 15 Oeste 0 -- -- 55
2019-11-11 14:00:00 10.1 7 Sudoeste 11 Sur 0 -- -- 60
2019-11-11 13:00:00 7.5 3 Sudeste 10 Sur 0 -- -- 74
2019-11-11 12:00:00 4.7 3 Sur 6 Sudoeste 0 -- -- 80
2019-11-11 11:00:00 2.4 3 Noroeste 9 Sur 0 -- -- 92
2019-11-11 10:00:00 1.9 3 Sudeste 6 Este 0 -- -- 97
2019-11-11 09:00:00 0.4 2 Noroeste 6 Oeste 0 -- -- 98
2019-11-11 08:00:00 -0.3 0 Calma 5 Noroeste 0 -- -- 99
2019-11-11 07:00:00 -0.6 2 Norte 6 Noroeste 0 -- -- 99
2019-11-11 06:00:00 -0.6 2 Sudoeste 6 Oeste 0 -- -- 99
2019-11-11 05:00:00 -0.1 4 Sudoeste 8 Oeste 0 -- -- 99
2019-11-11 04:00:00 0 4 Nordeste 11 Nordeste 0 -- -- 99
2019-11-11 03:00:00 -1.1 2 Nordeste 6 Noroeste 0 -- -- 98
2019-11-11 02:00:00 -0.4 3 Noroeste 6 Noroeste 0 -- -- 97
2019-11-11 01:00:00 0 0 Calma 5 Noroeste 0 -- -- 96
2019-11-11 00:00:00 0.5 2 Noroeste 7 Este 0 -- -- 94
2019-11-10 23:00:00 2.2 0 Calma 10 Oeste 0 -- -- 92
2019-11-10 22:00:00 2.4 7 Noroeste 11 Noroeste 0 -- -- 93
2019-11-10 21:00:00 3 0 Calma 6 Noroeste 0 -- -- 89
2019-11-10 20:00:00 3.4 3 Norte 9 Norte 0 -- -- 81
2019-11-10 19:00:00 6.5 4 Oeste 14 Norte 0 -- -- 62
2019-11-10 18:00:00 8.1 4 Norte 17 Noroeste 0 -- -- 47
2019-11-10 17:00:00 10.3 7 Noroeste 16 Noroeste 0 -- -- 45
2019-11-10 16:00:00 11.5 10 Oeste 22 Sudoeste 0 -- -- 55
2019-11-10 15:00:00 11.5 13 Sudoeste 22 Sudoeste 0 -- -- 50
2019-11-10 14:00:00 10.5 12 Sudoeste 21 Sudoeste 0 -- -- 63
2019-11-10 13:00:00 9.1 11 Oeste 20 Oeste 0 -- -- 73
2019-11-10 12:00:00 7 6 Sur 14 Sur 0 -- -- 89
2019-11-10 11:00:00 6.1 4 Sur 10 Sur 0 -- -- 93
2019-11-10 10:00:00 5.2 2 Sudoeste 6 Sur 0 -- -- 98
2019-11-10 09:00:00 4.8 4 Sudoeste 8 Sur 0 -- -- 99
2019-11-10 08:00:00 4.6 3 Sur 9 Este 0 -- -- 98
2019-11-10 07:00:00 4.7 0 Calma 12 Oeste 0 -- -- 96
2019-11-10 06:00:00 5 5 Noroeste 13 Oeste 0 -- -- 95
2019-11-10 05:00:00 5.2 12 Oeste 20 Oeste 0 -- -- 94
2019-11-10 04:00:00 5.4 6 Oeste 13 Nordeste 0.2 -- -- 94
2019-11-10 03:00:00 5.6 3 Sur 9 Este 0.8 -- -- 94
2019-11-10 02:00:00 5.8 4 Norte 14 Nordeste 1.6 -- -- 94
2019-11-10 01:00:00 5.5 0 Calma 8 Nordeste 0 -- -- 93
2019-11-10 00:00:00 5.2 3 Norte 4 Noroeste 0 -- -- 92
2019-11-09 23:00:00 5.9 0 Calma 10 Sur 0 -- -- 88
2019-11-09 22:00:00 6.6 2 Sur 16 Sudoeste 0 -- -- 85
2019-11-09 21:00:00 7.2 13 Sudoeste 21 Sudoeste 0 -- -- 83
2019-11-09 20:00:00 7.1 8 Sudoeste 19 Sur 0 -- -- 83
2019-11-09 19:00:00 7.3 7 Sur 20 Sudoeste 0 -- -- 80
2019-11-09 18:00:00 7.5 8 Sur 24 Sudoeste 0 -- -- 77
2019-11-09 17:00:00 8.6 13 Sudoeste 23 Sudoeste 0 -- -- 72
2019-11-09 16:00:00 10.6 10 Sur 18 Sur 0 -- -- 64
2019-11-09 15:00:00 8.3 9 Sudoeste 21 Oeste 0 -- -- 71
2019-11-09 14:00:00 9.1 11 Sudoeste 23 Sudoeste 0 -- -- 65
2019-11-09 13:00:00 8.8 10 Sudoeste 27 Sudoeste 0 -- -- 68
2019-11-09 12:00:00 6.2 11 Sudoeste 18 Sur 0 -- -- 79
2019-11-09 11:00:00 4.3 4 Sudoeste 9 Sudoeste 0 -- -- 89
2019-11-09 10:00:00 3.4 2 Sudeste 8 Sur 0 -- -- 90
2019-11-09 09:00:00 2.1 2 Sur 6 Noroeste 0 -- -- 99
2019-11-09 08:00:00 -0.6 4 Noroeste 9 Nordeste 0 -- -- 99
2019-11-09 07:00:00 -0.8 3 Norte 10 Este 0 -- -- 98
2019-11-09 06:00:00 -0.2 3 Nordeste 15 Sudoeste 0 -- -- 99
2019-11-09 05:00:00 -1 3 Sudoeste 6 Sur 0 -- -- 99
2019-11-09 04:00:00 -1.5 0 Calma 3 Noroeste 0 -- -- 98
2019-11-09 03:00:00 -1.1 0 Calma 7 Sur 0 -- -- 98
2019-11-09 02:00:00 -0.7 2 Sudeste 4 Este 0 -- -- 98
2019-11-09 01:00:00 -0.5 3 Norte 6 Noroeste 0 -- -- 97
2019-11-09 00:00:00 0.3 0 Calma 4 Noroeste 0 -- -- 95
2019-11-08 23:00:00 1.6 2 Sudoeste 6 Sur 0 -- -- 94
2019-11-08 22:00:00 2.6 0 Calma 15 Sur 0 -- -- 90
2019-11-08 21:00:00 3.7 3 Sudeste 19 Oeste 0 -- -- 85
2019-11-08 20:00:00 4.8 8 Oeste 24 Oeste 0 -- -- 78
2019-11-08 19:00:00 5.5 14 Oeste 29 Oeste 0 -- -- 75
2019-11-08 18:00:00 6.4 14 Oeste 33 Oeste 0 -- -- 71
2019-11-08 17:00:00 7.9 19 Oeste 39 Oeste 0 -- -- 65
2019-11-08 16:00:00 8.4 17 Sudoeste 35 Sudoeste 0 -- -- 63
2019-11-08 15:00:00 9.1 15 Sudoeste 30 Sudoeste 0 -- -- 60
2019-11-08 14:00:00 8.2 11 Sudoeste 27 Sudoeste 0 -- -- 72
2019-11-08 13:00:00 6.9 9 Sudoeste 21 Sudoeste 0 -- -- 72
2019-11-08 12:00:00 5.7 8 Oeste 14 Sudoeste 0 -- -- 79
2019-11-08 11:00:00 3.6 4 Sudoeste 12 Este 0 -- -- 92
2019-11-08 10:00:00 2.9 5 Este 10 Nordeste 0 -- -- 96
2019-11-08 09:00:00 2.2 4 Sur 7 Sur 0 -- -- 99
2019-11-08 08:00:00 0.4 3 Noroeste 6 Este 0 -- -- 98
2019-11-08 07:00:00 1.4 0 Calma 5 Este 0 -- -- 98
2019-11-08 06:00:00 1.3 2 Sudoeste 5 Oeste 0 -- -- 98
2019-11-08 05:00:00 1.7 3 Oeste 9 Oeste 0 -- -- 98
2019-11-08 04:00:00 1.6 3 Oeste 6 Oeste 0 -- -- 97
2019-11-08 03:00:00 1.8 0 Calma 4 Noroeste 0 -- -- 95
2019-11-08 02:00:00 2.7 0 Calma 5 Noroeste 0 -- -- 95
2019-11-08 01:00:00 2.3 0 Calma 5 Noroeste 0 -- -- 95
2019-11-08 00:00:00 2.8 0 Calma 7 Sur 0 -- -- 92
2019-11-07 23:00:00 4.2 3 Sudeste 14 Sudoeste 0 -- -- 89
2019-11-07 22:00:00 4.6 3 Sudoeste 14 Oeste 0 -- -- 87
2019-11-07 21:00:00 6.2 8 Oeste 18 Sudoeste 0 -- -- 84
2019-11-07 20:00:00 7.2 14 Oeste 22 Oeste 0 -- -- 83
2019-11-07 19:00:00 8.2 10 Sudoeste 17 Sur 0 -- -- 85
2019-11-07 18:00:00 8.6 3 Sudoeste 12 Sudoeste 0 -- -- 90
2019-11-07 17:00:00 8.8 6 Sur 14 Sur 0 -- -- 90
2019-11-07 16:00:00 9 9 Sur 17 Sudoeste 0 -- -- 90
2019-11-07 15:00:00 8.7 9 Sudoeste 15 Sur 0 -- -- 90
2019-11-07 14:00:00 8.2 7 Oeste 15 Sudoeste 0.4 -- -- 94
2019-11-07 13:00:00 9.2 4 Sur 12 Sudoeste 0 -- -- 83
2019-11-07 12:00:00 9.4 4 Sur 9 Sudoeste 0 -- -- 81
2019-11-07 11:00:00 8.1 3 Sur 10 Sudoeste 0 -- -- 85
2019-11-07 10:00:00 7.5 6 Este 11 Este 0 -- -- 86
2019-11-07 09:00:00 5.8 5 Nordeste 10 Nordeste 0 -- -- 98
2019-11-07 08:00:00 3.4 2 Norte 8 Norte 0 -- -- 98
2019-11-07 07:00:00 3.9 2 Sudeste 15 Oeste 0 -- -- 98
2019-11-07 06:00:00 4.3 11 Sudoeste 18 Sudoeste 0 -- -- 99
2019-11-07 05:00:00 4.4 2 Noroeste 7 Oeste 0 -- -- 100
2019-11-07 04:00:00 4.2 0 Calma 9 Sur 0 -- -- 99
2019-11-07 03:00:00 3 3 Sudoeste 6 Sudoeste 0 -- -- 99
2019-11-07 02:00:00 2.8 0 Calma 5 Noroeste 0 -- -- 98
2019-11-07 01:00:00 3.2 0 Calma 6 Noroeste 0 -- -- 97
2019-11-07 00:00:00 3.5 4 Noroeste 5 Noroeste 0 -- -- 97
2019-11-06 23:00:00 4.1 0 Calma 5 Norte 0 -- -- 96
2019-11-06 22:00:00 4.9 0 Calma 5 Noroeste 0 -- -- 93
2019-11-06 21:00:00 6.7 2 Norte 6 Este 0 -- -- 87
2019-11-06 20:00:00 8.8 4 Sudeste 20 Sudoeste 0 -- -- 80
2019-11-06 19:00:00 9.7 10 Sudoeste 19 Sudoeste 0 -- -- 77
2019-11-06 18:00:00 10.7 10 Oeste 26 Sudoeste 0 -- -- 74
2019-11-06 17:00:00 12.5 11 Sudoeste 21 Sudoeste 0 -- -- 66
2019-11-06 16:00:00 13.6 9 Sudoeste 19 Sur 0 -- -- 62
2019-11-06 15:00:00 13.6 10 Sudoeste 25 Sudoeste 0 -- -- 63
2019-11-06 14:00:00 12.3 9 Oeste 17 Oeste 0 -- -- 66
2019-11-06 13:00:00 10.5 11 Sudoeste 19 Sudoeste 0 -- -- 72
2019-11-06 12:00:00 8.4 9 Sudoeste 17 Sudoeste 0 -- -- 79
2019-11-06 11:00:00 6.1 2 Sudoeste 7 Este 0 -- -- 90
2019-11-06 10:00:00 5 3 Sudeste 9 Sur 0 -- -- 97
2019-11-06 09:00:00 3 0 Calma 7 Noroeste 0 -- -- 100
2019-11-06 08:00:00 1 4 Noroeste 6 Norte 0 -- -- 99
2019-11-06 07:00:00 1.3 2 Norte 4 Nordeste 0 -- -- 98
2019-11-06 06:00:00 1.2 2 Nordeste 7 Noroeste 0 -- -- 98
2019-11-06 05:00:00 1.7 0 Calma 5 Sur 0 -- -- 98
2019-11-06 04:00:00 1.5 2 Noroeste 6 Noroeste 0 -- -- 96
2019-11-06 03:00:00 2.1 0 Calma 5 Noroeste 0 -- -- 95
2019-11-06 02:00:00 2.4 3 Norte 6 Norte 0 -- -- 93
2019-11-06 01:00:00 3.4 4 Noroeste 6 Norte 0 -- -- 90
2019-11-06 00:00:00 3.9 4 Noroeste 6 Noroeste 0 -- -- 88
2019-11-05 23:00:00 5.2 3 Sudoeste 7 Sur 0 -- -- 84
2019-11-05 22:00:00 6.5 4 Sur 23 Oeste 0 -- -- 78
2019-11-05 21:00:00 8 13 Oeste 24 Oeste 0 -- -- 72
2019-11-05 20:00:00 8.3 11 Sudoeste 23 Sudoeste 0 -- -- 70
2019-11-05 19:00:00 8.8 10 Sudoeste 28 Sudoeste 0 -- -- 67
2019-11-05 18:00:00 9.5 16 Sudoeste 38 Oeste 0 -- -- 65
2019-11-05 17:00:00 10.8 24 Sudoeste 42 Sudoeste 0 -- -- 61
2019-11-05 16:00:00 12 21 Oeste 43 Sudoeste 0 -- -- 58
2019-11-05 15:00:00 12.8 27 Sudoeste 48 Sudoeste 0 -- -- 54
2019-11-05 14:00:00 12.9 27 Sudoeste 47 Oeste 0 -- -- 53
2019-11-05 13:00:00 12.4 22 Sudoeste 41 Sudoeste 0 -- -- 55
2019-11-05 12:00:00 11.1 15 Oeste 35 Sudoeste 0 -- -- 65
2019-11-05 11:00:00 9.7 18 Sudoeste 35 Sudoeste 0 -- -- 73
2019-11-05 10:00:00 8.8 17 Sudoeste 28 Sudoeste 0 -- -- 77
2019-11-05 09:00:00 8.1 12 Sur 27 Sur 0 -- -- 85
2019-11-05 08:00:00 7 8 Sur 16 Sur 0 -- -- 94
2019-11-05 07:00:00 7.8 7 Sur 22 Sur 0 -- -- 91
2019-11-05 06:00:00 9.1 13 Sur 27 Sudoeste 0 -- -- 83
2019-11-05 05:00:00 9.4 11 Sudoeste 29 Sudoeste 0 -- -- 91
2019-11-05 04:00:00 10.3 17 Sudoeste 29 Sudoeste 0 -- -- 93
2019-11-05 03:00:00 10.2 10 Sur 23 Sur 0.2 -- -- 97
2019-11-05 02:00:00 10.6 6 Sur 15 Sudoeste 0 -- -- 97
2019-11-05 01:00:00 11.1 11 Sudoeste 19 Sudoeste 0.2 -- -- 94
2019-11-05 00:00:00 11 9 Sudoeste 17 Sudoeste 0 -- -- 91
2019-11-04 23:00:00 12.1 7 Sur 33 Sur 0 -- -- 86
2019-11-04 22:00:00 12.9 18 Sudoeste 34 Sudoeste 0.2 -- -- 84
2019-11-04 21:00:00 13.9 16 Sudoeste 35 Sudoeste 0 -- -- 76
2019-11-04 20:00:00 12.8 2 Sudoeste 4 Sudoeste 0 -- -- 79
2019-11-04 19:00:00 13.5 0 Calma 15 Sudoeste 0 -- -- 73
2019-11-04 18:00:00 14.4 4 Oeste 35 Sudoeste 0 -- -- 70
2019-11-04 17:00:00 16.2 15 Sudoeste 38 Sudoeste 0 -- -- 63
2019-11-04 16:00:00 15.9 19 Oeste 34 Sudoeste 0 -- -- 63
2019-11-04 15:00:00 15.7 23 Oeste 42 Sudoeste 0 -- -- 65
2019-11-04 14:00:00 15.4 26 Oeste 46 Sudoeste 0 -- -- 66
2019-11-04 13:00:00 16.3 30 Oeste 60 Oeste 0 -- -- 63
2019-11-04 12:00:00 15.2 32 Oeste 55 Oeste 0 -- -- 68
2019-11-04 11:00:00 13.9 21 Sudoeste 39 Sudoeste 0 -- -- 72
2019-11-04 10:00:00 13 17 Sudoeste 30 Sudoeste 0 -- -- 76
2019-11-04 09:00:00 11 9 Sudoeste 21 Oeste 0 -- -- 81
2019-11-04 08:00:00 5.8 0 Calma 6 Sudoeste 0 -- -- 95
2019-11-04 07:00:00 5.4 2 Nordeste 6 Nordeste 0 -- -- 92
2019-11-04 06:00:00 5.1 0 Calma 6 Norte 0 -- -- 92
2019-11-04 05:00:00 5.8 2 Sudeste 5 Este 0 -- -- 88
2019-11-04 04:00:00 6.3 2 Este 9 Este 0 -- -- 83
2019-11-04 03:00:00 6.9 2 Sudeste 13 Sudoeste 0 -- -- 80
2019-11-04 02:00:00 6.8 0 Calma 9 Este 0 -- -- 80
2019-11-04 01:00:00 6.8 3 Sudoeste 12 Sudoeste 0 -- -- 80
2019-11-04 00:00:00 7.8 12 Oeste 22 Sudoeste 0 -- -- 75
2019-11-03 23:00:00 8.1 4 Oeste 13 Sudoeste 0 -- -- 74
2019-11-03 22:00:00 7.9 2 Este 19 Oeste 0 -- -- 79
2019-11-03 21:00:00 9.7 14 Oeste 22 Oeste 0 -- -- 69
2019-11-03 20:00:00 9.5 3 Sudoeste 17 Oeste 0 -- -- 74
2019-11-03 19:00:00 11.2 6 Oeste 30 Sudoeste 0 -- -- 67
2019-11-03 18:00:00 12.2 17 Sudoeste 39 Oeste 0 -- -- 62
2019-11-03 17:00:00 13.9 26 Sudoeste 44 Oeste 0 -- -- 59
2019-11-03 16:00:00 15 21 Sudoeste 40 Oeste 0 -- -- 58
2019-11-03 15:00:00 15.1 23 Sudoeste 41 Sudoeste 0 -- -- 59
2019-11-03 14:00:00 15.1 22 Sudoeste 36 Sudoeste 0 -- -- 60
2019-11-03 13:00:00 13.8 14 Sudoeste 28 Sudoeste 0 -- -- 71
2019-11-03 12:00:00 11.3 5 Sudoeste 16 Este 0 -- -- 82
2019-11-03 11:00:00 11.3 6 Norte 23 Sur 0.2 -- -- 86
2019-11-03 10:00:00 10.9 11 Sur 21 Sur 1.2 -- -- 97
2019-11-03 09:00:00 11 9 Sudoeste 39 Sudoeste 0.4 -- -- 93
2019-11-03 08:00:00 11.9 19 Sudoeste 31 Sudoeste 0 -- -- 82
2019-11-03 07:00:00 11.5 21 Sudoeste 37 Sudoeste 0 -- -- 85
2019-11-03 06:00:00 11.7 19 Sudoeste 40 Oeste 0 -- -- 84
2019-11-03 05:00:00 11.4 23 Oeste 39 Sudoeste 0 -- -- 93
2019-11-03 04:00:00 11.9 20 Sudoeste 35 Sudoeste 0.2 -- -- 96
2019-11-03 03:00:00 12.1 16 Sudoeste 31 Sudoeste 0 -- -- 96
2019-11-03 02:00:00 12.2 13 Sudoeste 36 Sudoeste 2.6 -- -- 96
2019-11-03 01:00:00 13.1 9 Sudoeste 19 Sur 0 -- -- 88
2019-11-03 00:00:00 12.4 6 Sur 12 Sur 0 -- -- 93
2019-11-02 23:00:00 13.4 5 Sur 18 Sudoeste 0 -- -- 89
2019-11-02 22:00:00 13.2 7 Sudoeste 14 Sudoeste 0 -- -- 90
2019-11-02 21:00:00 13.3 3 Sur 10 Sur 0 -- -- 89
2019-11-02 20:00:00 13.4 3 Sudoeste 8 Sur 0 -- -- 88
2019-11-02 19:00:00 14.6 4 Sur 17 Sur 0 -- -- 84
2019-11-02 18:00:00 15.8 12 Sudoeste 23 Oeste 0 -- -- 80
2019-11-02 17:00:00 16.7 13 Sudoeste 28 Sudoeste 0 -- -- 76
2019-11-02 16:00:00 17.1 16 Sudoeste 28 Sudoeste 0 -- -- 75
2019-11-02 15:00:00 17.5 12 Sudoeste 28 Sudoeste 0 -- -- 74
2019-11-02 14:00:00 17.9 18 Sudoeste 31 Sudoeste 0 -- -- 74
2019-11-02 13:00:00 16.9 18 Oeste 28 Oeste 0 -- -- 82
2019-11-02 12:00:00 14.9 14 Oeste 28 Oeste 0 -- -- 92
2019-11-02 11:00:00 14 10 Oeste 19 Sudoeste 0 -- -- 95
2019-11-02 10:00:00 13.9 8 Sur 14 Sudoeste 0 -- -- 89
2019-11-02 09:00:00 11.9 0 Calma 8 Este 0 -- -- 94
2019-11-02 08:00:00 10 0 Calma 10 Noroeste 0 -- -- 98
2019-11-02 07:00:00 10 2 Sudoeste 7 Noroeste 0 -- -- 97
2019-11-02 06:00:00 10.4 3 Norte 7 Noroeste 0 -- -- 96
2019-11-02 05:00:00 11.8 0 Calma 8 Norte 0 -- -- 94
2019-11-02 04:00:00 12.2 3 Norte 6 Norte 0 -- -- 96
2019-11-02 03:00:00 12.4 3 Nordeste 8 Este 0 -- -- 96
2019-11-02 02:00:00 12.6 3 Este 16 Nordeste 0.2 -- -- 96
2019-11-02 01:00:00 12.5 6 Nordeste 12 Nordeste 2 -- -- 96
2019-11-02 00:00:00 12.6 2 Nordeste 13 Oeste 0 -- -- 96
2019-11-01 23:00:00 12.7 2 Noroeste 5 Oeste 0.2 -- -- 95
2019-11-01 22:00:00 11.9 0 Calma 4 Noroeste 0 -- -- 95
2019-11-01 21:00:00 11.6 0 Calma 4 Norte 0 -- -- 94
2019-11-01 20:00:00 12.3 0 Calma 5 Noroeste 0 -- -- 93
2019-11-01 19:00:00 12.9 2 Noroeste 5 Norte 0 -- -- 90
2019-11-01 18:00:00 14.7 2 Noroeste 5 Sudoeste 0 -- -- 81
2019-11-01 17:00:00 16 3 Sur 7 Sur 0 -- -- 72
2019-11-01 16:00:00 16 2 Sudoeste 8 Noroeste 0 -- -- 71
2019-11-01 15:00:00 15.4 5 Oeste 12 Oeste 0 -- -- 76
2019-11-01 14:00:00 15.6 5 Oeste 15 Sudoeste 0 -- -- 78
2019-11-01 13:00:00 14.9 4 Sudoeste 14 Oeste 0 -- -- 78
2019-11-01 12:00:00 14.1 4 Sudoeste 8 Sudoeste 0 -- -- 80
2019-11-01 11:00:00 13 0 Calma 5 Este 0 -- -- 89
2019-11-01 10:00:00 11.8 5 Oeste 9 Oeste 0 -- -- 98
2019-11-01 09:00:00 11 2 Sudoeste 5 Sudoeste 0 -- -- 98
2019-11-01 08:00:00 10.4 2 Sudeste 6 Noroeste 0 -- -- 99
2019-11-01 07:00:00 10.5 0 Calma 9 Oeste 0 -- -- 97
2019-11-01 06:00:00 11.1 2 Norte 5 Nordeste 0 -- -- 100
2019-11-01 05:00:00 11 0 Calma 5 Este 0 -- -- 100
2019-11-01 04:00:00 10.8 2 Norte 9 Noroeste 0 -- -- 100
2019-11-01 03:00:00 10.7 4 Noroeste 6 Noroeste 0 -- -- 100
2019-11-01 02:00:00 10.9 0 Calma 6 Noroeste 0 -- -- 100
2019-11-01 01:00:00 10.5 0 Calma 5 Norte 0 -- -- 100
2019-11-01 00:00:00 10 0 Calma 6 Noroeste 0 -- -- 99
2019-10-31 23:00:00 10.7 0 Calma 6 Noroeste 0 -- -- 98
2019-10-31 22:00:00 10.9 3 Noroeste 5 Noroeste 0 -- -- 98
2019-10-31 21:00:00 11.7 0 Calma 4 Noroeste 0 -- -- 97
2019-10-31 20:00:00 12.3 2 Norte 5 Noroeste 0 -- -- 95
2019-10-31 19:00:00 13.9 0 Calma 6 Sudoeste 0 -- -- 94
2019-10-31 18:00:00 14.6 0 Calma 11 Oeste 0.2 -- -- 93
2019-10-31 17:00:00 15.3 8 Oeste 16 Sudoeste 0.8 -- -- 91
2019-10-31 16:00:00 18.3 4 Sur 16 Sudoeste 0 -- -- 72
2019-10-31 15:00:00 18.6 5 Sur 13 Sudoeste 0 -- -- 73
2019-10-31 14:00:00 16.5 2 Sudeste 8 Nordeste 0.2 -- -- 86
2019-10-31 13:00:00 16.5 3 Sur 8 Sudoeste 0 -- -- 81
2019-10-31 12:00:00 16 2 Sudeste 5 Este 0 -- -- 83
2019-10-31 11:00:00 14.8 2 Sur 5 Sur 0 -- -- 87
2019-10-31 10:00:00 13.5 2 Sur 8 Sudoeste 0 -- -- 91
2019-10-31 09:00:00 12.8 0 Calma 9 Sudoeste 0 -- -- 93
2019-10-31 08:00:00 10.9 3 Norte 7 Noroeste 0 -- -- 98
2019-10-31 07:00:00 10.4 4 Norte 5 Noroeste 0 -- -- 96
2019-10-31 06:00:00 11.6 5 Noroeste 9 Noroeste 0 -- -- 97
2019-10-31 05:00:00 11.3 2 Norte 4 Noroeste 0 -- -- 97
2019-10-31 04:00:00 11 0 Calma 5 Oeste 0 -- -- 96
2019-10-31 03:00:00 11.3 3 Oeste 8 Sudoeste 0 -- -- 96
2019-10-31 02:00:00 11 0 Calma 5 Noroeste 0 -- -- 96
2019-10-31 01:00:00 10.7 3 Noroeste 7 Nordeste 0 -- -- 94
2019-10-31 00:00:00 11.7 2 Este 8 Norte 0 -- -- 92
2019-10-30 23:00:00 11.4 4 Noroeste 9 Norte 0 -- -- 93
2019-10-30 22:00:00 11 2 Norte 4 Noroeste 0 -- -- 94
2019-10-30 21:00:00 11.8 0 Calma 4 Norte 0 -- -- 91
2019-10-30 20:00:00 13.2 0 Calma 9 Sur 0 -- -- 85
2019-10-30 19:00:00 14.7 6 Sur 15 Sudoeste 0 -- -- 80
2019-10-30 18:00:00 15.8 9 Oeste 16 Sudoeste 0 -- -- 80
2019-10-30 17:00:00 17.6 10 Sudoeste 21 Sudoeste 0 -- -- 72
2019-10-30 16:00:00 18.4 11 Sudoeste 22 Sudoeste 0 -- -- 70
2019-10-30 15:00:00 20.5 8 Sur 22 Sur 0 -- -- 64
2019-10-30 14:00:00 19.6 11 Sur 28 Sur 0 -- -- 62
2019-10-30 13:00:00 18.6 13 Sudoeste 22 Sur 0 -- -- 64
2019-10-30 12:00:00 17.3 6 Sur 16 Sudoeste 0 -- -- 69
2019-10-30 11:00:00 16 4 Sur 8 Sudeste 0 -- -- 72
2019-10-30 10:00:00 15.5 3 Sur 7 Sur 0 -- -- 77
2019-10-30 09:00:00 12 0 Calma 4 Noroeste 0 -- -- 93
2019-10-30 08:00:00 8.3 4 Norte 6 Norte 0 -- -- 97
2019-10-30 07:00:00 7.9 4 Norte 7 Noroeste 0 -- -- 97
2019-10-30 06:00:00 7.9 4 Norte 6 Norte 0 -- -- 96
2019-10-30 05:00:00 8.2 4 Norte 5 Norte 0 -- -- 95
2019-10-30 04:00:00 8.5 5 Norte 7 Noroeste 0 -- -- 95
2019-10-30 03:00:00 8.8 5 Norte 6 Noroeste 0 -- -- 94
2019-10-30 02:00:00 9.5 2 Norte 6 Noroeste 0 -- -- 92
2019-10-30 01:00:00 9.9 3 Norte 8 Noroeste 0 -- -- 92
2019-10-30 00:00:00 9.8 5 Norte 6 Norte 0 -- -- 93
2019-10-29 23:00:00 10.3 5 Norte 6 Norte 0 -- -- 93
2019-10-29 22:00:00 10.9 5 Noroeste 6 Noroeste 0 -- -- 94
2019-10-29 21:00:00 11.5 5 Noroeste 6 Noroeste 0 -- -- 95
2019-10-29 20:00:00 12.2 5 Noroeste 6 Noroeste 0 -- -- 92
2019-10-29 19:00:00 13.5 4 Norte 5 Noroeste 0 -- -- 86
2019-10-29 18:00:00 16.9 0 Calma 9 Oeste 0 -- -- 74
2019-10-29 17:00:00 19.8 6 Oeste 14 Sudoeste 0 -- -- 63
2019-10-29 16:00:00 21.1 3 Sur 8 Sur 0 -- -- 58
2019-10-29 15:00:00 20.3 4 Sur 8 Sur 0 -- -- 58
2019-10-29 14:00:00 19.5 3 Sur 11 Sur 0 -- -- 62
2019-10-29 13:00:00 18.7 5 Sur 10 Sur 0 -- -- 71
2019-10-29 12:00:00 17.1 6 Sudoeste 13 Sudoeste 0 -- -- 78
2019-10-29 11:00:00 16.3 4 Sur 8 Sudoeste 0 -- -- 81
2019-10-29 10:00:00 15.4 2 Sudeste 10 Norte 0 -- -- 81
2019-10-29 09:00:00 11.7 6 Noroeste 11 Noroeste 0 -- -- 100
2019-10-29 08:00:00 8.4 3 Noroeste 5 Noroeste 0 -- -- 100
2019-10-29 07:00:00 8.1 0 Calma 4 Noroeste 0 -- -- 100
2019-10-29 06:00:00 8.1 2 Noroeste 6 Norte 0 -- -- 100
2019-10-29 05:00:00 8.1 4 Noroeste 5 Noroeste 0 -- -- 99
2019-10-29 04:00:00 8.4 3 Norte 6 Norte 0 -- -- 99
2019-10-29 03:00:00 8.9 0 Calma 4 Norte 0 -- -- 98
2019-10-29 02:00:00 9.7 3 Norte 5 Noroeste 0 -- -- 98
2019-10-29 01:00:00 10.9 3 Norte 4 Noroeste 0 -- -- 98
2019-10-29 00:00:00 10.6 3 Noroeste 6 Noroeste 0 -- -- 98
2019-10-28 23:00:00 10.1 3 Norte 7 Noroeste 0 -- -- 97
2019-10-28 22:00:00 10.7 5 Noroeste 7 Noroeste 0 -- -- 94
2019-10-28 21:00:00 12.1 4 Noroeste 5 Noroeste 0 -- -- 91
2019-10-28 20:00:00 13.2 0 Calma -- -- 0 -- -- 90
2019-10-28 19:00:00 13.7 0 Calma 4 Noroeste 0 -- -- 91
2019-10-28 18:00:00 14.2 0 Calma 6 Sur 0 -- -- 86
2019-10-28 17:00:00 15.2 0 Calma 6 Sur 0 -- -- 79
2019-10-28 16:00:00 15.8 4 Sudoeste 10 Sudoeste 0 -- -- 76
2019-10-28 15:00:00 16.2 5 Oeste 10 Sudoeste 0 -- -- 73
2019-10-28 14:00:00 16.2 2 Sur 6 Sur 0 -- -- 75
2019-10-28 13:00:00 15.8 2 Sur 6 Sur 0 -- -- 75
2019-10-28 12:00:00 14.8 3 Sur 4 Sur 0 -- -- 81
2019-10-28 11:00:00 13.9 0 Calma 5 Sur 0 -- -- 90
2019-10-28 10:00:00 13.1 2 Sur 5 Sur 0 -- -- 97
2019-10-28 09:00:00 11.7 0 Calma 7 Nordeste 0 -- -- 100
2019-10-28 08:00:00 9.3 2 Noroeste 5 Noroeste 0 -- -- 100
2019-10-28 07:00:00 9.2 4 Noroeste 5 Noroeste 0 -- -- 99
2019-10-28 06:00:00 10 3 Noroeste 5 Noroeste 0 -- -- 100
2019-10-28 05:00:00 9.8 3 Noroeste 5 Noroeste 0 -- -- 100
2019-10-28 04:00:00 9.4 3 Norte 5 Norte 0 -- -- 99
2019-10-28 03:00:00 9.2 3 Norte 6 Noroeste 0 -- -- 99
2019-10-28 02:00:00 9.1 4 Noroeste 6 Noroeste 0 -- -- 98
2019-10-28 01:00:00 9.6 4 Norte 6 Noroeste 0 -- -- 97
2019-10-28 00:00:00 10.6 0 Calma 6 Noroeste 0 -- -- 97
2019-10-27 23:00:00 11.2 0 Calma 6 Norte 0 -- -- 95
2019-10-27 22:00:00 11.7 4 Noroeste 6 Noroeste 0 -- -- 92
2019-10-27 21:00:00 12.3 3 Noroeste 5 Noroeste 0 -- -- 90
2019-10-27 20:00:00 13.2 0 Calma 4 Sudoeste 0 -- -- 84
2019-10-27 19:00:00 13.9 3 Norte 5 Norte 0 -- -- 82
2019-10-27 18:00:00 16.4 3 Norte 6 Sur 0 -- -- 73
2019-10-27 17:00:00 19.4 3 Sur 13 Sudoeste 0 -- -- 52
2019-10-27 16:00:00 20.6 4 Sur 13 Sur 0 -- -- 49
2019-10-27 15:00:00 20.8 5 Sur 13 Sudoeste 0 -- -- 50
2019-10-27 14:00:00 20.4 5 Sur 15 Sudoeste 0 -- -- 55
2019-10-27 13:00:00 19.2 5 Sur 13 Sur 0 -- -- 62
2019-10-27 12:00:00 17.2 5 Sudoeste 13 Noroeste 0 -- -- 65
2019-10-27 11:00:00 16.1 6 Noroeste 12 Noroeste 0 -- -- 75
2019-10-27 10:00:00 15.9 2 Sur 6 Este 0 -- -- 72
2019-10-27 09:00:00 12.4 0 Calma 6 Nordeste 0 -- -- 94
2019-10-27 08:00:00 8.2 3 Norte 7 Noroeste 0 -- -- 98
2019-10-27 07:00:00 7.8 6 Noroeste 7 Noroeste 0 -- -- 97
2019-10-27 06:00:00 8 5 Noroeste 6 Noroeste 0 -- -- 97
2019-10-27 05:00:00 8.1 4 Noroeste 6 Norte 0 -- -- 98
2019-10-27 04:00:00 8.3 0 Calma 7 Noroeste 0 -- -- 97
2019-10-27 03:00:00 8.4 5 Noroeste 6 Noroeste 0 -- -- 96
2019-10-27 02:00:00 9.1 5 Norte 7 Noroeste 0 -- -- 94
2019-10-27 01:00:00 9.9 4 Noroeste 6 Noroeste 0 -- -- 93
2019-10-27 00:00:00 10.7 4 Noroeste 8 Noroeste 0 -- -- 92
2019-10-26 23:00:00 11.4 4 Noroeste 8 Noroeste 0 -- -- 91
2019-10-26 22:00:00 12 6 Noroeste 9 Noroeste 0 -- -- 88
2019-10-26 21:00:00 12.9 0 Calma 5 Oeste 0 -- -- 84
2019-10-26 20:00:00 13.9 2 Noroeste 5 Norte 0 -- -- 82
2019-10-26 19:00:00 17.3 0 Calma 7 Sudoeste 0 -- -- 69
2019-10-26 18:00:00 20.4 3 Sur 10 Sudoeste 0 -- -- 53
2019-10-26 17:00:00 21.4 2 Sudeste 9 Sur 0 -- -- 50
2019-10-26 16:00:00 21.7 4 Sur 14 Sur 0 -- -- 49
2019-10-26 15:00:00 20.9 5 Sur 13 Sudoeste 0 -- -- 53
2019-10-26 14:00:00 19.5 5 Sudoeste 14 Sur 0 -- -- 52
2019-10-26 13:00:00 17.5 3 Sudoeste 10 Sudoeste 0 -- -- 57
2019-10-26 12:00:00 16.8 3 Noroeste 10 Este 0 -- -- 58
2019-10-26 11:00:00 16.2 3 Norte 9 Nordeste 0 -- -- 56
2019-10-26 10:00:00 11.8 2 Norte 6 Nordeste 0 -- -- 72
2019-10-26 09:00:00 7.4 3 Norte 8 Norte 0 -- -- 88
2019-10-26 08:00:00 6.9 6 Noroeste 8 Noroeste 0 -- -- 88
2019-10-26 07:00:00 7.1 6 Noroeste 8 Noroeste 0 -- -- 87
2019-10-26 06:00:00 7.1 3 Norte 6 Noroeste 0 -- -- 88
2019-10-26 05:00:00 7.4 5 Noroeste 7 Norte 0 -- -- 88
2019-10-26 04:00:00 7.8 6 Noroeste 7 Noroeste 0 -- -- 89
2019-10-26 03:00:00 8.3 5 Noroeste 8 Noroeste 0 -- -- 91
2019-10-26 02:00:00 8.2 2 Norte 7 Noroeste 0 -- -- 92
2019-10-26 01:00:00 8.5 4 Noroeste 6 Noroeste 0 -- -- 91
2019-10-26 00:00:00 9.7 2 Norte 6 Norte 0 -- -- 86
2019-10-25 23:00:00 9.8 4 Norte 7 Noroeste 0 -- -- 88
2019-10-25 22:00:00 10.5 4 Norte 14 Este 0 -- -- 86
2019-10-25 21:00:00 10.9 2 Noroeste 6 Noroeste 0 -- -- 86
2019-10-25 20:00:00 12.1 3 Norte 6 Noroeste 0 -- -- 82
2019-10-25 19:00:00 16.3 0 Calma 8 Sudoeste 0 -- -- 68
2019-10-25 18:00:00 18.5 5 Sudoeste 14 Sudoeste 0 -- -- 55
2019-10-25 17:00:00 19 8 Sudoeste 17 Sudoeste 0 -- -- 50
2019-10-25 16:00:00 19.2 7 Sudoeste 18 Oeste 0 -- -- 49
2019-10-25 15:00:00 18.2 10 Oeste 15 Sudoeste 0 -- -- 55
2019-10-25 14:00:00 16.9 10 Oeste 16 Sudoeste 0 -- -- 68
2019-10-25 13:00:00 14.7 5 Sudoeste 11 Nordeste 0 -- -- 66
2019-10-25 12:00:00 14 5 Este 11 Este 0 -- -- 73
2019-10-25 11:00:00 12.6 2 Nordeste 10 Nordeste 0 -- -- 80
2019-10-25 10:00:00 10 3 Nordeste 8 Noroeste 0 -- -- 98
2019-10-25 09:00:00 6.7 4 Nordeste 12 Este 0 -- -- 100
2019-10-25 08:00:00 5.9 3 Norte 8 Norte 0 -- -- 99
2019-10-25 07:00:00 6.8 3 Noroeste 9 Nordeste 0 -- -- 99
2019-10-25 06:00:00 7.5 3 Nordeste 15 Este 0 -- -- 99
2019-10-25 05:00:00 6.6 2 Norte 4 Sudoeste 0 -- -- 98
2019-10-25 04:00:00 7.3 3 Noroeste 8 Noroeste 0 -- -- 99
2019-10-25 03:00:00 7.9 0 Calma 6 Oeste 0 -- -- 99
2019-10-25 02:00:00 7.8 4 Noroeste 6 Norte 0 -- -- 98
2019-10-25 01:00:00 8.2 0 Calma 5 Noroeste 0 -- -- 97
2019-10-25 00:00:00 8.6 3 Noroeste 5 Norte 0 -- -- 96
2019-10-24 23:00:00 9.4 2 Oeste 4 Oeste 0 -- -- 96
2019-10-24 22:00:00 10 0 Calma 4 Noroeste 0 -- -- 94
2019-10-24 21:00:00 10.7 0 Calma 6 Este 0 -- -- 91
2019-10-24 20:00:00 10.6 0 Calma 3 Sur 0 -- -- 92
2019-10-24 19:00:00 11.9 0 Calma 13 Oeste 0 -- -- 85
2019-10-24 18:00:00 13 10 Sudoeste 23 Oeste 0 -- -- 79
2019-10-24 17:00:00 14.1 14 Oeste 22 Oeste 0 -- -- 75
2019-10-24 16:00:00 14.5 10 Sudoeste 21 Sudoeste 0 -- -- 74
2019-10-24 15:00:00 14.6 8 Sudoeste 22 Sudoeste 0 -- -- 71
2019-10-24 14:00:00 14.2 9 Sudoeste 22 Sudoeste 0 -- -- 73
2019-10-24 13:00:00 12.5 9 Oeste 17 Oeste 0 -- -- 82
2019-10-24 12:00:00 11.2 6 Sudoeste 13 Sudoeste 0 -- -- 86
2019-10-24 11:00:00 10.3 5 Noroeste 8 Noroeste 0 -- -- 91
2019-10-24 10:00:00 8.8 0 Calma 9 Noroeste 0 -- -- 100
2019-10-24 09:00:00 7.6 3 Noroeste 5 Norte 0 -- -- 100
2019-10-24 08:00:00 6 3 Norte 5 Norte 0 -- -- 99
2019-10-24 07:00:00 6.3 5 Norte 6 Noroeste 0 -- -- 99
2019-10-24 06:00:00 7.1 3 Norte 8 Noroeste 0 -- -- 99
2019-10-24 05:00:00 7.4 3 Norte 6 Noroeste 0 -- -- 99
2019-10-24 04:00:00 7.7 0 Calma 5 Noroeste 0 -- -- 98
2019-10-24 03:00:00 8.4 4 Noroeste 6 Norte 0 -- -- 97
2019-10-24 02:00:00 9.8 0 Calma 5 Noroeste 0 -- -- 97
2019-10-24 01:00:00 9.8 3 Noroeste 4 Noroeste 0 -- -- 96
2019-10-24 00:00:00 10.2 3 Noroeste 4 Noroeste 0 -- -- 94
2019-10-23 23:00:00 10.9 3 Sur 6 Sudoeste 0 -- -- 91
2019-10-23 22:00:00 10.6 3 Oeste 5 Oeste 0 -- -- 93
2019-10-23 21:00:00 10.6 0 Calma 5 Sur 0 -- -- 90
2019-10-23 20:00:00 11.9 3 Sur 9 Sudoeste 0 -- -- 84
2019-10-23 19:00:00 13.1 4 Sur 11 Sur 0 -- -- 81
2019-10-23 18:00:00 14.8 3 Sur 14 Sur 0 -- -- 78
2019-10-23 17:00:00 16.5 4 Sur 15 Sur 0 -- -- 73
2019-10-23 16:00:00 15.8 4 Sur 11 Sur 0 -- -- 73
2019-10-23 15:00:00 17 4 Sur 12 Sudoeste 0 -- -- 68
2019-10-23 14:00:00 15 3 Sur 13 Sudoeste 0 -- -- 81
2019-10-23 13:00:00 14 5 Sur 12 Sur 0 -- -- 88
2019-10-23 12:00:00 13.4 2 Sudeste 10 Sur 0 -- -- 97
2019-10-23 11:00:00 12.8 6 Noroeste 19 Noroeste 0 -- -- 97
2019-10-23 10:00:00 12.7 8 Este 15 Este 0 -- -- 98
2019-10-23 09:00:00 12.8 6 Este 18 Este 0 -- -- 97
2019-10-23 08:00:00 12.9 5 Nordeste 18 Este 0 -- -- 96
2019-10-23 07:00:00 13 10 Este 22 Sudeste 0.2 -- -- 95
2019-10-23 06:00:00 13.2 14 Nordeste 23 Este 0.2 -- -- 93
2019-10-23 05:00:00 12.5 10 Norte 22 Noroeste 1.4 -- -- 99
2019-10-23 04:00:00 12.3 4 Norte 25 Noroeste 3.8 -- -- 100
2019-10-23 03:00:00 12.1 10 Sudoeste 32 Noroeste 8.6 -- -- 99
2019-10-23 02:00:00 12.4 3 Sur 37 Noroeste 8.2 -- -- 97
2019-10-23 01:00:00 11.9 12 Oeste 38 Oeste 22.4 -- -- 99
2019-10-23 00:00:00 12 28 Oeste 47 Oeste 17.8 -- -- 96
2019-10-22 23:00:00 16.4 15 Este 36 Este 0.6 -- -- 93
2019-10-22 22:00:00 16.3 16 Nordeste 33 Nordeste 0 -- -- 90
2019-10-22 21:00:00 16.7 17 Este 34 Este 0 -- -- 91
2019-10-22 20:00:00 16.5 14 Este 41 Este 0 -- -- 88
2019-10-22 19:00:00 15.9 13 Nordeste 36 Nordeste 0 -- -- 87
2019-10-22 18:00:00 16.1 16 Nordeste 28 Nordeste 0.2 -- -- 88
2019-10-22 17:00:00 14.5 13 Nordeste 28 Este 0.2 -- -- 91
2019-10-22 16:00:00 14.1 13 Nordeste 39 Este 2.2 -- -- 94
2019-10-22 15:00:00 15.2 16 Este 36 Este 1 -- -- 86
2019-10-22 14:00:00 15.9 7 Nordeste 34 Este 0 -- -- 80
2019-10-22 13:00:00 15 14 Nordeste 31 Nordeste 0 -- -- 83
2019-10-22 12:00:00 13.7 13 Nordeste 29 Nordeste 0 -- -- 90
2019-10-22 11:00:00 12.8 15 Nordeste 26 Nordeste 0 -- -- 92
2019-10-22 10:00:00 11.8 12 Nordeste 31 Nordeste 0.2 -- -- 95
2019-10-22 09:00:00 11 8 Nordeste 26 Nordeste 3.4 -- -- 97
2019-10-22 08:00:00 10.5 10 Nordeste 20 Nordeste 3 -- -- 96
2019-10-22 07:00:00 10.5 4 Noroeste 8 Noroeste 1.2 -- -- 93
2019-10-22 06:00:00 10.8 3 Norte 16 Nordeste 0 -- -- 87
2019-10-22 05:00:00 11 9 Nordeste 15 Nordeste 0 -- -- 84
2019-10-22 04:00:00 10.8 5 Nordeste 12 Nordeste 0 -- -- 86
2019-10-22 03:00:00 10.6 7 Nordeste 12 Nordeste 0 -- -- 88
2019-10-22 02:00:00 10.5 5 Nordeste 10 Nordeste 0 -- -- 91
2019-10-22 01:00:00 10.5 4 Nordeste 15 Nordeste 0 -- -- 95
2019-10-22 00:00:00 11 6 Nordeste 13 Nordeste 0 -- -- 93
2019-10-21 23:00:00 11.2 6 Nordeste 12 Nordeste 0 -- -- 93
2019-10-21 22:00:00 11.2 2 Norte 6 Nordeste 0 -- -- 92
2019-10-21 21:00:00 11.8 3 Norte 9 Nordeste 0 -- -- 91
2019-10-21 20:00:00 12.3 2 Nordeste 7 Nordeste 0 -- -- 89
2019-10-21 19:00:00 13 3 Sur 6 Sur 0 -- -- 84
2019-10-21 18:00:00 13.6 4 Sur 12 Sur 0 -- -- 76
2019-10-21 17:00:00 13.8 6 Sur 14 Sur 0 -- -- 75
2019-10-21 16:00:00 14 5 Sur 12 Sudoeste 0 -- -- 78
2019-10-21 15:00:00 14.4 5 Este 10 Este 0 -- -- 83
2019-10-21 14:00:00 13.1 3 Sur 9 Sur 0 -- -- 91
2019-10-21 13:00:00 12 2 Sudeste 8 Este 0 -- -- 94
2019-10-21 12:00:00 11.4 2 Noroeste 7 Norte 0 -- -- 89
2019-10-21 11:00:00 10.1 0 Calma 5 Norte 0 -- -- 99
2019-10-21 10:00:00 9.5 0 Calma 5 Noroeste 0 -- -- 100
2019-10-21 09:00:00 9.1 3 Sudoeste 5 Sudoeste 0 -- -- 100
2019-10-21 08:00:00 9.3 3 Este 9 Nordeste 0 -- -- 100
2019-10-21 07:00:00 9.5 3 Nordeste 9 Nordeste 0 -- -- 100
2019-10-21 06:00:00 9.6 4 Este 8 Este 0 -- -- 100
2019-10-21 05:00:00 8.5 2 Norte 4 Norte 0 -- -- 100
2019-10-21 04:00:00 8.3 0 Calma 5 Noroeste 0 -- -- 99
2019-10-21 03:00:00 8.5 0 Calma 5 Norte 0 -- -- 99
2019-10-21 02:00:00 9.1 3 Norte 4 Norte 0 -- -- 97
2019-10-21 01:00:00 9.9 0 Calma 5 Noroeste 0 -- -- 98
2019-10-21 00:00:00 10.8 0 Calma 5 Norte 0 -- -- 97
2019-10-20 23:00:00 11 2 Norte 7 Noroeste 0 -- -- 96
2019-10-20 22:00:00 11.8 0 Calma 3 Noroeste 0 -- -- 94
2019-10-20 21:00:00 12.4 0 Calma 11 Noroeste 0 -- -- 91
2019-10-20 20:00:00 12.5 3 Noroeste 15 Oeste 0 -- -- 92
2019-10-20 19:00:00 12.9 0 Calma 13 Este 0 -- -- 91
2019-10-20 18:00:00 13.5 3 Oeste 13 Oeste 0 -- -- 82
2019-10-20 17:00:00 13.6 8 Oeste 16 Oeste 0 -- -- 86
2019-10-20 16:00:00 12.9 9 Noroeste 23 Sudoeste 0.6 -- -- 91
2019-10-20 15:00:00 13.4 15 Oeste 42 Sudoeste 2.6 -- -- 92
2019-10-20 14:00:00 15.4 11 Sudoeste 22 Sur 0 -- -- 84
2019-10-20 13:00:00 14.5 3 Sudeste 23 Oeste 0.2 -- -- 95
2019-10-20 12:00:00 13.6 27 Oeste 49 Oeste 7.4 -- -- 94
2019-10-20 11:00:00 16.2 4 Sur 16 Sudoeste 0 -- -- 100
2019-10-20 10:00:00 15.6 6 Sur 14 Sudoeste 0 -- -- 99
2019-10-20 09:00:00 14.2 3 Sudoeste 17 Oeste 7.4 -- -- 97
2019-10-20 08:00:00 15.3 3 Sudoeste 6 Oeste 0.4 -- -- 96
2019-10-20 07:00:00 15.3 0 Calma 5 Sur 0 -- -- 93
2019-10-20 06:00:00 15.3 0 Calma 8 Este 0 -- -- 92
2019-10-20 05:00:00 15.4 2 Sudeste 6 Este 0 -- -- 91
2019-10-20 04:00:00 15.4 0 Calma 5 Nordeste 0 -- -- 91
2019-10-20 03:00:00 15.4 0 Calma 7 Sur 0 -- -- 91
2019-10-20 02:00:00 15.6 5 Sur 14 Sudoeste 0 -- -- 90
2019-10-20 01:00:00 15.7 0 Calma 7 Sudoeste 0 -- -- 88
2019-10-20 00:00:00 15.7 2 Sur 4 Este 0 -- -- 87
2019-10-19 23:00:00 15.6 0 Calma 6 Sur 0 -- -- 86
2019-10-19 22:00:00 15.7 3 Sur 12 Sur 0 -- -- 83
2019-10-19 21:00:00 16.3 5 Sur 18 Sudoeste 0 -- -- 78
2019-10-19 20:00:00 17 6 Sur 15 Sur 0 -- -- 80
2019-10-19 19:00:00 18.9 6 Sur 21 Sudoeste 0 -- -- 70
2019-10-19 18:00:00 19.8 10 Sur 27 Sur 0 -- -- 58
2019-10-19 17:00:00 20.7 15 Sudoeste 28 Sudoeste 0 -- -- 54
2019-10-19 16:00:00 21.5 12 Sudoeste 23 Sudoeste 0 -- -- 57
2019-10-19 15:00:00 20.9 5 Sur 15 Sudoeste 0 -- -- 55
2019-10-19 14:00:00 21 5 Sur 19 Sur 0 -- -- 54
2019-10-19 13:00:00 19.3 8 Sudoeste 15 Sur 0 -- -- 61
2019-10-19 12:00:00 18.3 3 Sur 10 Sur 0 -- -- 71
2019-10-19 11:00:00 16.4 3 Este 7 Este 0 -- -- 80
2019-10-19 10:00:00 14.2 0 Calma 7 Sur 0 -- -- 91
2019-10-19 09:00:00 9.9 0 Calma 6 Noroeste 0 -- -- 100
2019-10-19 08:00:00 9 0 Calma 6 Norte 0 -- -- 98
2019-10-19 07:00:00 8.9 3 Noroeste 6 Noroeste 0 -- -- 97
2019-10-19 06:00:00 9.2 5 Norte 6 Noroeste 0 -- -- 96
2019-10-19 05:00:00 9.8 5 Noroeste 6 Norte 0 -- -- 96
2019-10-19 04:00:00 10.1 5 Noroeste 6 Noroeste 0 -- -- 94
2019-10-19 03:00:00 11.4 2 Norte 6 Sur 0 -- -- 92
2019-10-19 02:00:00 11.7 0 Calma 5 Sudeste 0 -- -- 92
2019-10-19 01:00:00 11.3 0 Calma 5 Norte 0 -- -- 93
2019-10-19 00:00:00 12.1 0 Calma 6 Norte 0 -- -- 86
2019-10-18 23:00:00 14.3 4 Oeste 9 Noroeste 0 -- -- 83
2019-10-18 22:00:00 15.7 8 Oeste 12 Sudoeste 0 -- -- 77
2019-10-18 21:00:00 15.7 3 Sudoeste 9 Sudoeste 0 -- -- 75
2019-10-18 20:00:00 17 4 Sudoeste 8 Sur 0 -- -- 70
2019-10-18 19:00:00 18.4 3 Sudoeste 24 Oeste 0 -- -- 64
2019-10-18 18:00:00 20.1 10 Sudoeste 24 Sudoeste 0 -- -- 59
2019-10-18 17:00:00 21.1 14 Oeste 29 Sudoeste 0 -- -- 55
2019-10-18 16:00:00 21.5 15 Sudoeste 27 Sudoeste 0 -- -- 52
2019-10-18 15:00:00 21.2 12 Sudoeste 26 Sudoeste 0 -- -- 54
2019-10-18 14:00:00 19.9 12 Sudoeste 24 Sudoeste 0 -- -- 58
2019-10-18 13:00:00 17.6 5 Sur 13 Sur 0 -- -- 62
2019-10-18 12:00:00 15.5 4 Sur 6 Sur 0 -- -- 67
2019-10-18 11:00:00 13.6 0 Calma 6 Este 0 -- -- 72
2019-10-18 10:00:00 11.3 0 Calma 8 Nordeste 0 -- -- 82
2019-10-18 09:00:00 9.3 3 Norte 6 Nordeste 0 -- -- 90
2019-10-18 08:00:00 8 4 Noroeste 6 Norte 0 -- -- 92
2019-10-18 07:00:00 7.6 0 Calma 3 Norte 0 -- -- 93
2019-10-18 06:00:00 6.9 3 Noroeste 6 Noroeste 0 -- -- 92
2019-10-18 05:00:00 7.1 0 Calma 6 Noroeste 0 -- -- 91
2019-10-18 04:00:00 7.1 3 Norte 6 Norte 0 -- -- 89
2019-10-18 03:00:00 7.1 3 Norte 8 Norte 0 -- -- 90
2019-10-18 02:00:00 7.6 4 Noroeste 6 Noroeste 0 -- -- 86
2019-10-18 01:00:00 8.2 4 Norte 6 Noroeste 0 -- -- 85
2019-10-18 00:00:00 9.1 4 Noroeste 6 Noroeste 0 -- -- 80
2019-10-17 23:00:00 11.5 4 Noroeste 11 Sudoeste 0 -- -- 71
2019-10-17 22:00:00 13.9 8 Oeste 13 Norte 0 -- -- 62
2019-10-17 21:00:00 15 3 Sur 10 Sudoeste 0 -- -- 54
2019-10-17 20:00:00 16.4 4 Sudoeste 18 Sudoeste 0 -- -- 49
2019-10-17 19:00:00 -- -- -- -- -- -- -- -- --
2019-10-17 18:00:00 -- -- -- -- -- -- -- -- --
2019-10-17 17:00:00 -- -- -- -- -- -- -- -- --
2019-10-17 16:00:00 -- -- -- -- -- -- -- -- --
2019-10-17 15:00:00 -- -- -- -- -- -- -- -- --
2019-10-17 14:00:00 -- -- -- -- -- -- -- -- --
2019-10-17 13:00:00 -- -- -- -- -- -- -- -- --
2019-10-17 12:00:00 -- -- -- -- -- -- -- -- --
2019-10-17 11:00:00 -- -- -- -- -- -- -- -- --
2019-10-17 10:00:00 11.7 -- -- -- -- 0 -- -- --
2019-10-17 09:00:00 6.4 3 Noroeste 7 Norte 0 -- -- 95
2019-10-17 08:00:00 5.4 -- -- -- -- 0 -- -- 93
2019-10-17 07:00:00 5.6 6 Noroeste 7 Noroeste 0 -- -- 92
2019-10-17 06:00:00 6.1 5 Noroeste 6 Noroeste 0 -- -- 92
2019-10-17 05:00:00 6.3 4 Norte 6 Noroeste 0 -- -- 90
2019-10-17 04:00:00 6.6 5 Noroeste 6 Noroeste 0 -- -- 91
2019-10-17 03:00:00 -- -- -- -- -- -- -- -- --
2019-10-17 02:00:00 -- -- -- -- -- -- -- -- --
2019-10-17 01:00:00 -- -- -- -- -- -- -- -- --
2019-10-17 00:00:00 -- -- -- -- -- -- -- -- --
2019-10-16 23:00:00 -- -- -- -- -- -- -- -- --
2019-10-16 22:00:00 -- -- -- -- -- -- -- -- --
2019-10-16 21:00:00 -- -- -- -- -- -- -- -- --
2019-10-16 20:00:00 -- -- -- -- -- -- -- -- --
2019-10-16 19:00:00 -- -- -- -- -- -- -- -- --
2019-10-16 18:00:00 -- -- -- -- -- -- -- -- --
2019-10-16 17:00:00 -- -- -- -- -- -- -- -- --
2019-10-16 16:00:00 -- -- -- -- -- -- -- -- --
2019-10-16 15:00:00 -- -- -- -- -- -- -- -- --
2019-10-16 14:00:00 -- -- -- -- -- -- -- -- --
2019-10-16 13:00:00 -- -- -- -- -- -- -- -- --
2019-10-16 12:00:00 -- -- -- -- -- -- -- -- --
2019-10-16 11:00:00 -- -- -- -- -- -- -- -- --
2019-10-16 10:00:00 -- -- -- -- -- -- -- -- --
2019-10-16 09:00:00 -- -- -- -- -- -- -- -- --
2019-10-16 08:00:00 -- -- -- -- -- -- -- -- --
2019-10-16 07:00:00 -- -- -- -- -- -- -- -- --
2019-10-16 06:00:00 -- -- -- -- -- -- -- -- --
2019-10-16 05:00:00 -- -- -- -- -- -- -- -- --
2019-10-16 04:00:00 -- -- -- -- -- -- -- -- --
2019-10-16 03:00:00 -- -- -- -- -- -- -- -- --
2019-10-16 02:00:00 -- -- -- -- -- -- -- -- --
2019-10-16 01:00:00 -- -- -- -- -- -- -- -- --
2019-10-16 00:00:00 -- -- -- -- -- -- -- -- --
2019-10-15 23:00:00 -- -- -- -- -- -- -- -- --
2019-10-15 22:00:00 -- -- -- -- -- -- -- -- --
2019-10-15 21:00:00 -- -- -- -- -- -- -- -- --
2019-10-15 20:00:00 -- -- -- -- -- -- -- -- --
2019-10-15 19:00:00 -- -- -- -- -- -- -- -- --
2019-10-15 18:00:00 -- -- -- -- -- -- -- -- --
2019-10-15 17:00:00 -- -- -- -- -- -- -- -- --
2019-10-15 16:00:00 -- -- -- -- -- -- -- -- --
2019-10-15 15:00:00 -- -- -- -- -- -- -- -- --
2019-10-15 14:00:00 -- -- -- -- -- -- -- -- --
2019-10-15 13:00:00 -- -- -- -- -- -- -- -- --
2019-10-15 12:00:00 -- -- -- -- -- -- -- -- --
2019-10-15 11:00:00 -- -- -- -- -- -- -- -- --
2019-10-15 10:00:00 -- -- -- -- -- -- -- -- --
2019-10-15 09:00:00 -- -- -- -- -- -- -- -- --
2019-10-15 08:00:00 -- -- -- -- -- -- -- -- --
2019-10-15 07:00:00 -- -- -- -- -- -- -- -- --
2019-10-15 06:00:00 -- -- -- -- -- -- -- -- --
2019-10-15 05:00:00 -- -- -- -- -- -- -- -- --
2019-10-15 04:00:00 -- -- -- -- -- -- -- -- --
2019-10-15 03:00:00 -- -- -- -- -- -- -- -- --
2019-10-15 02:00:00 -- -- -- -- -- -- -- -- --
2019-10-15 01:00:00 -- -- -- -- -- -- -- -- --
2019-10-15 00:00:00 -- -- -- -- -- -- -- -- --